Time;durP1;ratioP1;P1;durP2;ratioP2;P2;SDS_P1;SDS_P2;PMS_P1;PMS_P2;Temp;Humidity;BMP_temperature;BMP_pressure;BME280_temperature;BME280_humidity;BME280_pressure;Samples;Min_cycle;Max_cycle;Signal;HPM_P1;HPM_P2
2022/03/01 00:00:21;;;;;;;12.15;6.13;;;1.30;64.30;;;;;;4960482;28;20036;-81
2022/03/01 00:02:47;;;;;;;17.40;7.03;;;1.30;64.40;;;;;;4945131;28;20496;-81
2022/03/01 00:05:13;;;;;;;13.77;6.53;;;1.30;64.50;;;;;;4952148;28;20043;-80
2022/03/01 00:07:38;;;;;;;13.50;6.70;;;1.20;64.50;;;;;;4964833;28;20039;-81
2022/03/01 00:10:04;;;;;;;15.27;7.70;;;1.20;64.60;;;;;;4931847;28;20180;-81
2022/03/01 00:12:30;;;;;;;15.80;6.05;;;1.20;64.60;;;;;;4927459;28;20044;-81
2022/03/01 00:14:55;;;;;;;11.98;6.10;;;1.10;64.70;;;;;;4932798;28;20040;-80
2022/03/01 00:17:21;;;;;;;15.50;7.00;;;1.10;64.90;;;;;;4942548;28;20672;-82
2022/03/01 00:19:47;;;;;;;12.15;6.13;;;1.10;65.00;;;;;;4937922;28;20055;-80
2022/03/01 00:22:12;;;;;;;13.80;6.45;;;1.10;65.10;;;;;;4949453;28;20338;-82
2022/03/01 00:24:38;;;;;;;14.13;6.72;;;1.10;65.20;;;;;;4943745;28;20515;-81
2022/03/01 00:27:04;;;;;;;18.25;7.60;;;1.10;65.10;;;;;;4947268;28;20039;-81
2022/03/01 00:29:29;;;;;;;13.30;6.53;;;1.00;65.10;;;;;;4937394;28;20039;-80
2022/03/01 00:31:55;;;;;;;14.70;6.50;;;1.00;65.20;;;;;;4929717;28;20037;-81
2022/03/01 00:34:20;;;;;;;13.73;6.63;;;1.00;65.30;;;;;;4947533;28;20401;-81
2022/03/01 00:36:46;;;;;;;16.38;6.93;;;1.00;65.40;;;;;;4928709;28;20038;-81
2022/03/01 00:39:11;;;;;;;17.15;6.78;;;1.00;65.40;;;;;;4958496;28;21407;-80
2022/03/01 00:41:37;;;;;;;10.45;5.57;;;1.00;65.40;;;;;;4954823;28;20437;-80
2022/03/01 00:44:03;;;;;;;11.35;5.75;;;0.90;65.40;;;;;;4934722;28;20051;-80
2022/03/01 00:46:28;;;;;;;16.85;7.03;;;0.90;65.50;;;;;;4933481;28;20130;-80
2022/03/01 00:48:54;;;;;;;14.00;6.38;;;0.80;65.60;;;;;;4913670;28;20098;-81
2022/03/01 00:51:20;;;;;;;14.88;6.43;;;0.80;65.70;;;;;;4931239;28;20050;-80
2022/03/01 00:53:45;;;;;;;14.27;6.03;;;0.80;65.80;;;;;;4945959;28;20047;-81
2022/03/01 00:56:11;;;;;;;14.02;6.18;;;0.80;65.80;;;;;;4928223;28;20046;-80
2022/03/01 00:58:36;;;;;;;12.52;6.95;;;0.80;65.90;;;;;;4946114;28;20101;-80
2022/03/01 01:01:02;;;;;;;15.77;6.50;;;0.70;66.00;;;;;;4937042;28;20054;-80
2022/03/01 01:03:27;;;;;;;15.02;6.80;;;0.70;65.90;;;;;;4945629;28;20034;-81
2022/03/01 01:05:53;;;;;;;17.80;7.38;;;0.60;66.00;;;;;;4935371;28;20094;-81
2022/03/01 01:08:19;;;;;;;13.50;6.07;;;0.60;66.10;;;;;;4945298;28;20075;-79
2022/03/01 01:10:44;;;;;;;16.70;6.65;;;0.60;66.20;;;;;;4932894;28;20039;-81
2022/03/01 01:13:12;;;;;;;15.13;6.60;;;0.60;66.20;;;;;;4948367;28;20034;-80
2022/03/01 01:15:38;;;;;;;14.68;6.28;;;0.60;66.20;;;;;;4949030;28;20046;-81
2022/03/01 01:18:03;;;;;;;13.02;6.72;;;0.50;66.20;;;;;;4945333;28;20538;-81
2022/03/01 01:20:29;;;;;;;14.57;6.90;;;0.50;66.30;;;;;;4951377;28;20049;-80
2022/03/01 01:22:54;;;;;;;13.73;6.53;;;0.50;66.40;;;;;;4933142;28;20031;-79
2022/03/01 01:25:21;;;;;;;13.13;6.63;;;0.50;66.50;;;;;;4962123;28;20039;-80
2022/03/01 01:27:50;;;;;;;13.48;6.57;;;0.40;66.40;;;;;;4938844;28;20034;-80
2022/03/01 01:30:18;;;;;;;15.13;6.68;;;0.40;66.40;;;;;;4945212;28;20035;-80
2022/03/01 01:32:44;;;;;;;15.65;6.78;;;0.30;66.50;;;;;;4935718;28;20046;-80
2022/03/01 01:35:11;;;;;;;14.50;6.78;;;0.30;67.40;;;;;;4929456;28;20559;-80
2022/03/01 01:37:36;;;;;;;14.20;6.85;;;0.20;66.70;;;;;;4945668;28;20495;-80
2022/03/01 01:40:03;;;;;;;15.32;6.63;;;0.20;66.70;;;;;;4944347;28;20050;-80
2022/03/01 01:42:29;;;;;;;14.68;6.68;;;0.20;66.70;;;;;;4948353;28;20037;-79
2022/03/01 01:44:54;;;;;;;11.45;5.82;;;0.20;66.80;;;;;;4947926;28;20035;-80
2022/03/01 01:47:20;;;;;;;15.52;6.88;;;0.20;66.80;;;;;;4945378;28;20039;-79
2022/03/01 01:49:45;;;;;;;12.25;5.60;;;0.20;66.90;;;;;;4945822;28;20407;-80
2022/03/01 01:52:11;;;;;;;13.73;6.35;;;0.20;66.90;;;;;;4944232;28;20395;-80
2022/03/01 01:54:36;;;;;;;16.60;7.07;;;0.20;66.90;;;;;;4944662;28;20507;-80
2022/03/01 01:57:13;;;;;;;13.15;5.88;;;0.20;66.90;;;;;;4930459;28;20086;-80
2022/03/01 01:59:38;;;;;;;15.30;7.00;;;0.10;67.20;;;;;;4936663;28;20070;-80
2022/03/01 02:02:04;;;;;;;14.07;6.07;;;0.20;67.20;;;;;;4963617;28;20030;-80
2022/03/01 02:04:30;;;;;;;12.68;6.80;;;0.20;67.30;;;;;;4955276;28;20038;-80
2022/03/01 02:06:56;;;;;;;14.23;6.90;;;0.10;67.10;;;;;;4947141;28;20046;-80
2022/03/01 02:09:21;;;;;;;13.48;5.72;;;0.10;67.10;;;;;;4934898;28;20444;-80
2022/03/01 02:11:47;;;;;;;12.80;6.78;;;0.10;67.10;;;;;;4955873;28;20532;-80
2022/03/01 02:14:12;;;;;;;13.10;6.82;;;0.00;67.20;;;;;;4945063;28;20480;-80
2022/03/01 02:16:38;;;;;;;15.57;6.57;;;0.00;67.30;;;;;;4929257;28;20448;-80
2022/03/01 02:19:04;;;;;;;13.30;6.80;;;-0.10;67.20;;;;;;4934490;28;20149;-80
2022/03/01 02:21:31;;;;;;;17.23;7.40;;;-0.10;67.30;;;;;;4933184;28;20038;-81
2022/03/01 02:23:56;;;;;;;13.52;6.53;;;-0.10;67.40;;;;;;4928332;28;20046;-80
2022/03/01 02:26:22;;;;;;;12.75;6.70;;;-0.10;67.60;;;;;;4945847;28;20042;-80
2022/03/01 02:28:47;;;;;;;12.85;6.93;;;-0.20;67.70;;;;;;4933308;28;20042;-80
2022/03/01 02:31:13;;;;;;;14.18;6.40;;;-0.20;67.70;;;;;;4957041;28;20666;-80
2022/03/01 02:33:38;;;;;;;15.00;6.78;;;-0.20;67.70;;;;;;4940159;28;20074;-79
2022/03/01 02:36:04;;;;;;;18.30;7.30;;;-0.20;67.90;;;;;;4939622;28;20463;-79
2022/03/01 02:38:29;;;;;;;15.45;7.03;;;-0.30;67.80;;;;;;4941710;28;20075;-79
2022/03/01 02:40:55;;;;;;;15.30;7.20;;;-0.30;67.90;;;;;;4956634;28;20043;-79
2022/03/01 02:43:21;;;;;;;14.13;6.00;;;-0.30;67.90;;;;;;4935486;28;20031;-79
2022/03/01 02:45:46;;;;;;;14.32;6.15;;;-0.30;67.90;;;;;;4942520;28;20066;-79
2022/03/01 02:48:12;;;;;;;14.02;6.68;;;-0.40;67.90;;;;;;4946180;28;20130;-79
2022/03/01 02:50:37;;;;;;;15.10;7.00;;;-0.40;67.90;;;;;;4946573;28;20078;-79
2022/03/01 02:53:03;;;;;;;16.10;6.93;;;-0.50;67.80;;;;;;4956895;28;20054;-79
2022/03/01 02:55:28;;;;;;;15.65;6.80;;;-0.50;68.00;;;;;;4944587;28;20066;-80
2022/03/01 02:57:54;;;;;;;14.75;7.53;;;-0.60;68.00;;;;;;4916897;28;20066;-79
2022/03/01 03:00:19;;;;;;;15.50;6.85;;;-0.70;68.00;;;;;;4946542;28;20130;-78
2022/03/01 03:02:45;;;;;;;12.90;6.90;;;-0.70;68.10;;;;;;4943995;28;20151;-79
2022/03/01 03:05:10;;;;;;;16.00;7.82;;;-0.70;68.20;;;;;;4950683;28;20034;-77
2022/03/01 03:07:36;;;;;;;16.58;6.93;;;-0.70;68.30;;;;;;4946597;28;20058;-80
2022/03/01 03:10:02;;;;;;;17.67;7.72;;;-0.70;68.40;;;;;;4941492;28;20040;-79
2022/03/01 03:12:28;;;;;;;17.95;7.68;;;-0.80;68.50;;;;;;4920465;28;20062;-79
2022/03/01 03:14:54;;;;;;;17.63;7.57;;;-0.80;68.60;;;;;;4949396;28;20112;-79
2022/03/01 03:17:19;;;;;;;16.23;7.07;;;-0.70;68.60;;;;;;4959818;28;20489;-80
2022/03/01 03:19:45;;;;;;;15.55;7.72;;;-0.80;68.60;;;;;;4941976;28;20043;-79
2022/03/01 03:22:10;;;;;;;13.30;6.85;;;-0.80;68.60;;;;;;4954228;28;20038;-79
2022/03/01 03:24:36;;;;;;;17.25;7.72;;;-0.80;68.50;;;;;;4948935;28;20476;-78
2022/03/01 03:27:01;;;;;;;16.02;7.38;;;-0.90;68.60;;;;;;4928986;29;20564;-79
2022/03/01 03:29:27;;;;;;;17.15;7.05;;;-0.90;68.60;;;;;;4931664;28;20127;-79
2022/03/01 03:31:57;;;;;;;12.23;6.35;;;-0.90;68.70;;;;;;4944147;28;20409;-79
2022/03/01 03:34:22;;;;;;;20.02;7.05;;;-1.00;68.80;;;;;;4944054;28;20404;-78
2022/03/01 03:36:48;;;;;;;16.55;7.10;;;-1.00;68.90;;;;;;4918269;28;20039;-79
2022/03/01 03:39:13;;;;;;;17.92;7.15;;;-1.00;69.00;;;;;;4928190;28;20122;-78
2022/03/01 03:41:39;;;;;;;13.70;7.13;;;-1.00;69.10;;;;;;4941227;28;20047;-78
2022/03/01 03:44:04;;;;;;;15.23;7.30;;;-1.00;69.10;;;;;;4953857;28;20122;-78
2022/03/01 03:46:30;;;;;;;15.02;6.80;;;-1.00;69.20;;;;;;4928551;28;20039;-79
2022/03/01 03:48:55;;;;;;;14.35;7.40;;;-1.00;69.20;;;;;;4950343;28;20389;-78
2022/03/01 03:51:21;;;;;;;15.57;7.13;;;-1.00;69.20;;;;;;4934103;28;20500;-78
2022/03/01 03:53:47;;;;;;;17.30;7.03;;;-1.10;69.10;;;;;;4940345;28;20043;-78
2022/03/01 03:56:13;;;;;;;12.80;6.25;;;-1.10;69.10;;;;;;4942773;28;20074;-78
2022/03/01 03:58:38;;;;;;;12.70;6.22;;;-1.20;69.20;;;;;;4919698;28;20813;-79
2022/03/01 04:01:04;;;;;;;15.20;6.70;;;-1.20;69.30;;;;;;4951811;28;20054;-79
2022/03/01 04:03:29;;;;;;;13.43;6.78;;;-1.20;69.40;;;;;;4943774;28;20035;-79
2022/03/01 04:05:55;;;;;;;16.65;6.90;;;-1.20;69.40;;;;;;4934116;28;20386;-79
2022/03/01 04:08:21;;;;;;;12.75;6.47;;;-1.20;69.40;;;;;;4944447;28;20107;-80
2022/03/01 04:10:46;;;;;;;16.20;7.78;;;-1.20;69.50;;;;;;4937821;28;20036;-78
2022/03/01 04:13:12;;;;;;;17.73;6.93;;;-1.20;69.60;;;;;;4950927;28;20984;-78
2022/03/01 04:15:38;;;;;;;13.65;7.03;;;-1.20;69.70;;;;;;4937974;28;20432;-78
2022/03/01 04:18:03;;;;;;;16.73;7.18;;;-1.20;69.80;;;;;;4940293;28;20414;-78
2022/03/01 04:20:29;;;;;;;13.52;6.50;;;-1.20;69.80;;;;;;4938331;28;20039;-78
2022/03/01 04:22:54;;;;;;;14.57;6.63;;;-1.20;69.80;;;;;;4936952;28;20048;-78
2022/03/01 04:25:20;;;;;;;12.65;6.35;;;-1.30;69.70;;;;;;4944062;28;20042;-78
2022/03/01 04:27:45;;;;;;;13.73;6.55;;;-1.30;69.70;;;;;;4915034;28;20040;-78
2022/03/01 04:30:12;;;;;;;12.80;6.80;;;-1.30;69.90;;;;;;4927003;29;20058;-78
2022/03/01 04:32:38;;;;;;;15.90;6.47;;;-1.40;69.80;;;;;;4942831;28;20054;-78
2022/03/01 04:35:04;;;;;;;13.05;6.53;;;-1.40;69.80;;;;;;4936354;28;20117;-78
2022/03/01 04:37:30;;;;;;;15.20;6.07;;;-1.40;69.80;;;;;;4945129;28;20039;-78
2022/03/01 04:39:56;;;;;;;13.68;6.70;;;-1.40;70.00;;;;;;4941178;28;20055;-78
2022/03/01 04:42:21;;;;;;;12.65;7.00;;;-1.50;70.00;;;;;;4937416;28;20023;-78
2022/03/01 04:44:47;;;;;;;15.75;6.05;;;-1.40;70.10;;;;;;4953808;28;20092;-78
2022/03/01 04:47:14;;;;;;;13.57;6.28;;;-1.50;70.10;;;;;;4935295;28;20089;-78
2022/03/01 04:49:39;;;;;;;12.00;7.38;;;-1.50;70.10;;;;;;4946647;28;20046;-78
2022/03/01 04:52:05;;;;;;;14.30;6.40;;;-1.60;70.00;;;;;;4940439;28;20035;-78
2022/03/01 04:54:31;;;;;;;15.70;7.50;;;-1.60;70.10;;;;;;4923453;29;20555;-78
2022/03/01 04:56:56;;;;;;;16.48;7.60;;;-1.60;70.20;;;;;;4941061;28;20062;-78
2022/03/01 04:59:22;;;;;;;13.80;6.70;;;-1.60;70.20;;;;;;4930846;28;20045;-79
2022/03/01 05:01:47;;;;;;;14.13;6.95;;;-1.70;70.30;;;;;;4917271;28;20051;-78
2022/03/01 05:04:13;;;;;;;14.15;7.47;;;-1.70;70.30;;;;;;4935391;28;20036;-79
2022/03/01 05:06:39;;;;;;;13.48;6.78;;;-1.80;70.30;;;;;;4912074;28;20502;-78
2022/03/01 05:09:04;;;;;;;15.00;6.68;;;-1.80;70.40;;;;;;4938637;28;20045;-78
2022/03/01 05:11:30;;;;;;;16.00;7.32;;;-1.90;70.40;;;;;;4942201;28;20042;-78
2022/03/01 05:13:55;;;;;;;15.30;6.88;;;-1.80;70.50;;;;;;4948843;28;20446;-77
2022/03/01 05:16:21;;;;;;;13.35;6.45;;;-1.90;70.50;;;;;;4919687;28;20031;-78
2022/03/01 05:18:46;;;;;;;11.48;6.18;;;-1.90;70.60;;;;;;4927944;28;20035;-79
2022/03/01 05:21:12;;;;;;;12.70;6.65;;;-1.90;70.80;;;;;;4927130;28;20053;-78
2022/03/01 05:23:37;;;;;;;13.13;6.43;;;-1.90;70.80;;;;;;4920670;28;20077;-78
2022/03/01 05:26:04;;;;;;;14.07;6.03;;;-1.90;70.90;;;;;;4924666;28;20098;-79
2022/03/01 05:28:30;;;;;;;16.77;7.07;;;-1.90;70.90;;;;;;4943907;28;20039;-79
2022/03/01 05:30:56;;;;;;;13.43;6.97;;;-1.90;71.00;;;;;;4942467;28;20460;-79
2022/03/01 05:33:21;;;;;;;17.33;8.13;;;-1.90;71.00;;;;;;4944497;28;20038;-79
2022/03/01 05:35:47;;;;;;;15.40;7.40;;;-1.90;71.10;;;;;;4955736;28;20492;-78
2022/03/01 05:38:12;;;;;;;14.45;7.32;;;-1.90;71.10;;;;;;4936044;28;20065;-78
2022/03/01 05:40:38;;;;;;;14.80;7.00;;;-1.90;71.10;;;;;;4922337;29;20158;-79
2022/03/01 05:43:04;;;;;;;13.48;6.55;;;-1.90;71.10;;;;;;4940171;28;20043;-78
2022/03/01 05:45:30;;;;;;;12.38;5.97;;;-1.90;71.20;;;;;;4934654;28;20110;-78
2022/03/01 05:47:56;;;;;;;16.55;6.95;;;-1.90;71.20;;;;;;4938362;28;20467;-78
2022/03/01 05:50:22;;;;;;;13.90;6.93;;;-1.90;71.10;;;;;;4942361;28;20042;-80
2022/03/01 05:52:48;;;;;;;14.60;7.07;;;-2.00;71.20;;;;;;4942898;28;20047;-78
2022/03/01 05:55:13;;;;;;;13.88;7.07;;;-2.00;71.30;;;;;;4940898;28;20043;-78
2022/03/01 05:57:39;;;;;;;14.98;6.75;;;-2.00;71.20;;;;;;4938762;28;20051;-77
2022/03/01 06:00:06;;;;;;;15.73;7.55;;;-2.00;71.30;;;;;;4943227;28;20707;-78
2022/03/01 06:02:32;;;;;;;15.32;7.30;;;-2.00;71.30;;;;;;4942981;28;20607;-79
2022/03/01 06:04:58;;;;;;;15.15;6.95;;;-2.10;71.30;;;;;;4946150;28;20048;-78
2022/03/01 06:07:23;;;;;;;13.15;6.97;;;-2.10;71.40;;;;;;4940715;28;21417;-78
2022/03/01 06:09:49;;;;;;;13.02;6.95;;;-2.20;71.40;;;;;;4941133;28;20042;-78
2022/03/01 06:12:14;;;;;;;12.95;6.93;;;-2.10;71.50;;;;;;4941159;28;20049;-78
2022/03/01 06:14:40;;;;;;;16.02;7.57;;;-2.20;71.50;;;;;;4938242;28;20031;-78
2022/03/01 06:17:05;;;;;;;10.82;6.55;;;-2.20;71.60;;;;;;4920293;28;20047;-79
2022/03/01 06:19:31;;;;;;;18.92;7.65;;;-2.20;71.60;;;;;;4921732;29;20124;-79
2022/03/01 06:21:56;;;;;;;15.43;6.75;;;-2.20;71.60;;;;;;4952176;28;20071;-79
2022/03/01 06:24:23;;;;;;;22.42;10.85;;;-2.20;71.70;;;;;;4930094;28;20075;-79
2022/03/01 06:26:48;;;;;;;16.50;9.07;;;-2.20;71.70;;;;;;4950998;28;20051;-78
2022/03/01 06:29:14;;;;;;;13.40;7.07;;;-2.20;71.80;;;;;;4937211;28;20043;-77
2022/03/01 06:31:39;;;;;;;14.02;7.45;;;-2.20;72.50;;;;;;4941341;28;20067;-78
2022/03/01 06:34:05;;;;;;;16.45;8.25;;;-2.20;71.80;;;;;;4923507;28;20516;-78
2022/03/01 06:36:30;;;;;;;17.70;7.63;;;-2.20;71.90;;;;;;4933903;28;20437;-78
2022/03/01 06:38:56;;;;;;;15.77;7.35;;;-2.20;71.90;;;;;;4951588;28;20416;-78
2022/03/01 06:41:21;;;;;;;16.27;8.38;;;-2.20;72.00;;;;;;4939355;28;20622;-78
2022/03/01 06:43:47;;;;;;;14.27;6.75;;;-2.20;72.00;;;;;;4951754;28;20028;-78
2022/03/01 06:46:13;;;;;;;19.88;8.43;;;-2.20;72.00;;;;;;4926074;29;20080;-79
2022/03/01 06:48:38;;;;;;;16.75;8.35;;;-2.10;72.20;;;;;;4953485;28;20094;-78
2022/03/01 06:51:05;;;;;;;16.00;7.90;;;-2.10;72.20;;;;;;4944483;28;20566;-78
2022/03/01 06:53:30;;;;;;;16.48;8.15;;;-2.10;72.20;;;;;;4937812;28;20039;-79
2022/03/01 06:55:56;;;;;;;15.00;7.93;;;-2.00;72.30;;;;;;4938849;28;20472;-79
2022/03/01 06:58:21;;;;;;;18.13;8.85;;;-1.90;72.40;;;;;;4939830;28;20047;-78
2022/03/01 07:00:47;;;;;;;19.50;9.93;;;-1.90;73.20;;;;;;4925002;28;20047;-78
2022/03/01 07:03:13;;;;;;;17.27;9.05;;;-1.80;72.50;;;;;;4938879;28;20108;-79
2022/03/01 07:05:38;;;;;;;19.70;9.27;;;-1.80;72.40;;;;;;4954186;28;20031;-80
2022/03/01 07:08:04;;;;;;;17.58;9.13;;;-1.70;72.50;;;;;;4933868;28;20118;-79
2022/03/01 07:10:29;;;;;;;42.30;18.30;;;-1.60;72.60;;;;;;4940283;28;20094;-79
2022/03/01 07:12:55;;;;;;;25.52;12.80;;;-1.60;72.60;;;;;;4933294;28;20043;-78
2022/03/01 07:15:20;;;;;;;30.58;14.07;;;-1.50;72.60;;;;;;4924590;28;20039;-79
2022/03/01 07:17:46;;;;;;;29.50;13.63;;;-1.40;72.70;;;;;;4932950;28;20542;-78
2022/03/01 07:20:12;;;;;;;40.63;17.13;;;-1.40;72.60;;;;;;4944759;28;20440;-79
2022/03/01 07:22:38;;;;;;;29.20;13.35;;;-1.30;72.60;;;;;;4950143;28;20031;-79
2022/03/01 07:25:04;;;;;;;24.33;12.35;;;-1.20;72.70;;;;;;4947367;28;20524;-79
2022/03/01 07:27:30;;;;;;;25.42;13.52;;;-1.10;72.70;;;;;;4921638;28;20032;-79
2022/03/01 07:29:55;;;;;;;24.30;12.38;;;-1.10;72.60;;;;;;4933980;28;20048;-79
2022/03/01 07:32:21;;;;;;;25.58;11.80;;;-0.90;72.70;;;;;;4938744;28;20042;-79
2022/03/01 07:34:46;;;;;;;21.95;10.95;;;-0.80;72.80;;;;;;4921784;29;20448;-79
2022/03/01 07:37:12;;;;;;;22.13;10.20;;;-0.70;72.70;;;;;;4932055;28;20046;-79
2022/03/01 07:39:38;;;;;;;18.38;9.80;;;-0.60;72.70;;;;;;4952868;28;20066;-79
2022/03/01 07:42:03;;;;;;;23.40;10.90;;;-0.50;72.60;;;;;;4951483;28;20451;-78
2022/03/01 07:44:29;;;;;;;22.08;9.95;;;-0.40;72.50;;;;;;4933545;28;20086;-79
2022/03/01 07:46:55;;;;;;;20.05;10.35;;;-0.30;72.50;;;;;;4939592;28;20035;-79
2022/03/01 07:49:21;;;;;;;24.13;10.50;;;-0.20;72.50;;;;;;4927635;28;20039;-78
2022/03/01 07:51:47;;;;;;;25.65;11.18;;;-0.10;72.60;;;;;;4938870;28;20046;-79
2022/03/01 07:54:12;;;;;;;19.13;8.75;;;0.10;72.60;;;;;;4925342;28;20417;-79
2022/03/01 07:56:39;;;;;;;20.13;9.55;;;0.20;72.60;;;;;;4944726;28;20135;-79
2022/03/01 07:59:05;;;;;;;18.33;8.35;;;0.30;72.70;;;;;;4954104;28;20110;-79
2022/03/01 08:01:31;;;;;;;20.85;8.90;;;0.50;72.70;;;;;;4946899;28;20043;-78
2022/03/01 08:03:56;;;;;;;15.55;8.02;;;0.60;72.60;;;;;;4957133;28;20474;-79
2022/03/01 08:06:22;;;;;;;14.23;7.85;;;0.80;72.50;;;;;;4936832;28;20046;-79
2022/03/01 08:08:48;;;;;;;14.65;7.25;;;0.90;72.40;;;;;;4927512;28;20039;-79
2022/03/01 08:11:13;;;;;;;12.80;6.78;;;1.10;72.20;;;;;;4947303;28;20131;-79
2022/03/01 08:13:39;;;;;;;16.38;7.40;;;1.30;72.00;;;;;;4940861;28;20035;-81
2022/03/01 08:16:05;;;;;;;12.85;7.05;;;1.40;71.60;;;;;;4940936;28;20053;-79
2022/03/01 08:18:30;;;;;;;11.98;6.18;;;1.50;71.50;;;;;;4956207;28;20063;-79
2022/03/01 08:20:57;;;;;;;10.55;6.32;;;1.70;71.50;;;;;;4953469;28;20114;-79
2022/03/01 08:23:23;;;;;;;11.90;6.00;;;1.80;71.40;;;;;;4934070;28;20039;-79
2022/03/01 08:25:49;;;;;;;15.30;6.97;;;2.00;71.20;;;;;;4943250;28;20126;-80
2022/03/01 08:28:14;;;;;;;11.60;6.18;;;2.20;71.30;;;;;;4915946;28;20121;-79
2022/03/01 08:30:40;;;;;;;12.15;6.43;;;2.30;71.10;;;;;;4942153;28;20042;-79
2022/03/01 08:33:05;;;;;;;9.52;5.80;;;2.50;70.90;;;;;;4940733;28;20039;-78
2022/03/01 08:35:32;;;;;;;11.45;6.40;;;2.70;70.80;;;;;;4932750;28;20474;-79
2022/03/01 08:38:07;;;;;;;14.57;6.35;;;2.90;70.60;;;;;;4939856;28;20063;-79
2022/03/01 08:40:34;;;;;;;10.98;5.75;;;3.10;70.50;;;;;;4940577;28;20521;-80
2022/03/01 08:42:59;;;;;;;12.43;5.43;;;3.30;70.40;;;;;;4932393;28;20492;-80
2022/03/01 08:45:25;;;;;;;11.68;6.35;;;3.50;70.30;;;;;;4944409;28;20046;-79
2022/03/01 08:47:51;;;;;;;10.25;5.90;;;3.60;69.90;;;;;;4962838;28;20102;-80
2022/03/01 08:50:16;;;;;;;18.67;14.40;;;3.80;69.50;;;;;;4933204;28;20047;-80
2022/03/01 08:52:42;;;;;;;9.82;6.15;;;4.00;69.10;;;;;;4953102;28;20126;-80
2022/03/01 08:55:08;;;;;;;8.73;5.15;;;4.10;68.90;;;;;;4940656;28;20039;-79
2022/03/01 08:57:34;;;;;;;8.48;5.50;;;4.30;68.80;;;;;;4936999;28;20042;-79
2022/03/01 08:59:59;;;;;;;8.02;5.15;;;4.50;68.70;;;;;;4937040;28;20062;-80
2022/03/01 09:02:25;;;;;;;8.32;4.95;;;4.70;68.30;;;;;;4952397;28;20487;-79
2022/03/01 09:04:50;;;;;;;8.75;4.82;;;4.80;67.60;;;;;;4943245;28;20551;-80
2022/03/01 09:07:16;;;;;;;7.80;4.72;;;5.00;67.20;;;;;;4941118;28;20134;-80
2022/03/01 09:09:42;;;;;;;11.38;4.57;;;5.20;67.20;;;;;;4926388;29;20472;-80
2022/03/01 09:12:07;;;;;;;9.18;4.82;;;5.30;66.80;;;;;;4929726;28;20086;-80
2022/03/01 09:14:33;;;;;;;6.45;4.45;;;5.50;66.50;;;;;;4950261;28;20110;-80
2022/03/01 09:16:58;;;;;;;8.48;5.38;;;5.70;66.20;;;;;;4952781;28;20536;-79
2022/03/01 09:19:24;;;;;;;6.78;4.18;;;5.80;65.70;;;;;;4919943;28;20051;-80
2022/03/01 09:21:50;;;;;;;7.38;4.60;;;6.00;65.50;;;;;;4944736;28;20573;-80
2022/03/01 09:24:15;;;;;;;11.13;4.85;;;6.10;65.40;;;;;;4938033;28;20649;-80
2022/03/01 09:26:41;;;;;;;7.20;4.50;;;6.20;65.20;;;;;;4935106;28;20050;-80
2022/03/01 09:29:06;;;;;;;7.68;4.20;;;6.30;64.60;;;;;;4932202;28;20470;-79
2022/03/01 09:31:32;;;;;;;7.13;4.47;;;6.50;64.30;;;;;;4942630;28;20570;-79
2022/03/01 09:33:57;;;;;;;8.20;4.10;;;6.70;64.00;;;;;;4935637;28;20055;-79
2022/03/01 09:36:23;;;;;;;6.82;4.15;;;6.90;63.80;;;;;;4941279;28;20072;-79
2022/03/01 09:38:49;;;;;;;6.68;4.28;;;7.10;63.80;;;;;;4955623;28;20043;-80
2022/03/01 09:41:14;;;;;;;7.25;4.65;;;7.20;63.10;;;;;;4932918;28;20490;-80
2022/03/01 09:43:40;;;;;;;7.13;4.57;;;7.30;62.60;;;;;;4924382;29;20055;-80
2022/03/01 09:46:06;;;;;;;6.72;4.10;;;7.40;62.40;;;;;;4950346;28;20090;-79
2022/03/01 09:48:32;;;;;;;6.95;3.90;;;7.60;62.40;;;;;;4931701;28;20032;-81
2022/03/01 09:50:59;;;;;;;8.45;4.45;;;7.70;62.10;;;;;;4928429;28;20106;-80
2022/03/01 09:53:25;;;;;;;8.10;4.78;;;7.80;61.70;;;;;;4938606;28;20484;-80
2022/03/01 09:55:52;;;;;;;7.15;4.22;;;8.10;61.40;;;;;;4933379;28;20530;-79
2022/03/01 09:58:17;;;;;;;9.98;4.50;;;8.10;60.70;;;;;;4922830;28;20039;-79
2022/03/01 10:00:45;;;;;;;8.90;4.53;;;8.10;60.70;;;;;;4924696;28;20078;-80
2022/03/01 10:03:13;;;;;;;8.43;4.60;;;8.30;60.70;;;;;;4943285;28;20515;-80
2022/03/01 10:05:40;;;;;;;6.25;4.07;;;8.40;60.60;;;;;;4931978;28;20043;-81
2022/03/01 10:08:24;;;;;;;8.07;4.30;;;8.60;60.70;;;;;;4953367;28;20058;-79
2022/03/01 10:10:53;;;;;;;9.32;4.53;;;8.90;60.70;;;;;;4937236;28;20039;-79
2022/03/01 10:13:27;;;;;;;8.75;5.07;;;9.20;60.40;;;;;;4955803;28;21134;-80
2022/03/01 10:16:10;;;;;;;9.32;5.03;;;9.40;59.40;;;;;;4939961;28;20089;-80
2022/03/01 10:18:39;;;;;;;8.25;5.07;;;9.60;58.50;;;;;;4931386;28;20552;-80
2022/03/01 10:21:09;;;;;;;7.00;4.90;;;9.70;58.10;;;;;;4910379;28;20069;-80
2022/03/01 10:23:35;;;;;;;8.43;4.80;;;9.80;57.70;;;;;;4928539;28;20059;-79
2022/03/01 10:26:14;;;;;;;8.10;4.35;;;9.90;57.50;;;;;;4935519;28;20028;-80
2022/03/01 10:28:40;;;;;;;7.35;4.68;;;10.10;56.70;;;;;;4937973;28;20523;-80
2022/03/01 10:31:16;;;;;;;7.45;4.07;;;10.30;57.30;;;;;;4953142;28;20039;-80
2022/03/01 10:34:02;;;;;;;11.43;5.43;;;10.50;57.00;;;;;;4930955;28;20105;-80
2022/03/01 10:36:35;;;;;;;7.60;4.93;;;10.70;56.10;;;;;;4945326;28;20039;-81
2022/03/01 10:39:04;;;;;;;7.00;4.57;;;10.80;56.20;;;;;;4923809;28;20043;-80
2022/03/01 10:41:31;;;;;;;9.93;5.25;;;10.90;56.20;;;;;;4933758;28;20046;-80
2022/03/01 10:43:57;;;;;;;8.43;4.57;;;11.10;56.20;;;;;;4930044;28;20672;-81
2022/03/01 10:46:24;;;;;;;9.32;4.78;;;11.20;56.00;;;;;;4928114;28;20110;-80
2022/03/01 10:49:05;;;;;;;8.60;4.45;;;11.30;55.40;;;;;;4920627;28;20071;-81
2022/03/01 10:51:31;;;;;;;7.72;4.50;;;11.50;54.40;;;;;;4951531;28;20044;-79
2022/03/01 10:53:58;;;;;;;9.00;4.60;;;11.60;55.10;;;;;;4941006;28;20123;-80
2022/03/01 10:56:36;;;;;;;8.65;4.32;;;11.80;55.10;;;;;;4931611;28;20043;-80
2022/03/01 10:59:03;;;;;;;7.50;4.32;;;12.00;53.80;;;;;;4947835;28;20138;-79
2022/03/01 11:01:28;;;;;;;5.90;4.50;;;12.20;54.40;;;;;;4920750;28;20134;-80
2022/03/01 11:03:54;;;;;;;7.65;4.30;;;12.40;54.20;;;;;;4932824;28;20517;-80
2022/03/01 11:06:19;;;;;;;8.20;4.82;;;12.50;53.70;;;;;;4947925;28;20833;-81
2022/03/01 11:08:45;;;;;;;8.98;4.80;;;12.60;53.20;;;;;;4938185;28;20451;-80
2022/03/01 11:11:11;;;;;;;7.55;4.63;;;12.60;53.10;;;;;;4945153;28;20896;-82
2022/03/01 11:13:44;;;;;;;7.78;4.32;;;12.80;52.90;;;;;;4921583;29;20427;-80
2022/03/01 11:16:44;;;;;;;7.32;4.18;;;12.90;52.50;;;;;;4939558;28;20051;-80
2022/03/01 11:19:28;;;;;;;8.93;4.50;;;13.00;52.10;;;;;;4941325;28;20058;-80
2022/03/01 11:21:54;;;;;;;10.20;4.97;;;13.20;52.00;;;;;;4941201;28;20216;-81
2022/03/01 11:24:20;;;;;;;7.70;4.90;;;13.40;52.20;;;;;;4942006;28;20606;-79
2022/03/01 11:26:46;;;;;;;8.10;5.00;;;13.50;52.10;;;;;;4942010;28;20043;-80
2022/03/01 11:29:13;;;;;;;8.30;4.68;;;13.50;51.90;;;;;;4942738;28;20113;-80
2022/03/01 11:31:39;;;;;;;6.97;4.93;;;13.70;51.70;;;;;;4946096;28;20050;-81
2022/03/01 11:34:12;;;;;;;7.80;4.95;;;13.80;51.10;;;;;;4956668;28;20035;-80
2022/03/01 11:36:38;;;;;;;8.75;5.38;;;13.90;49.60;;;;;;4919023;28;20034;-80
2022/03/01 11:39:10;;;;;;;7.28;4.82;;;13.80;49.80;;;;;;4939317;28;20035;-80
2022/03/01 11:41:52;;;;;;;7.45;4.65;;;13.50;48.90;;;;;;4970769;28;20039;-80
2022/03/01 11:44:22;;;;;;;6.85;4.75;;;13.40;49.40;;;;;;4954089;28;20043;-81
2022/03/01 11:46:49;;;;;;;6.57;4.32;;;13.30;49.50;;;;;;4925141;28;20158;-80
2022/03/01 11:49:15;;;;;;;8.07;5.03;;;13.40;50.00;;;;;;4953850;28;20530;-80
2022/03/01 11:51:49;;;;;;;6.60;4.32;;;13.50;49.50;;;;;;4940204;28;20094;-80
2022/03/01 11:54:20;;;;;;;6.15;4.07;;;13.50;49.40;;;;;;4933506;28;20035;-79
2022/03/01 11:56:47;;;;;;;7.22;4.90;;;13.60;48.70;;;;;;4904363;29;20496;-81
2022/03/01 11:59:13;;;;;;;7.93;5.57;;;13.70;48.90;;;;;;4924656;28;20133;-80
2022/03/01 12:01:39;;;;;;;6.50;3.63;;;13.80;48.60;;;;;;4941681;28;20095;-80
2022/03/01 12:04:06;;;;;;;7.90;4.07;;;13.80;48.60;;;;;;4947940;28;20042;-80
2022/03/01 12:06:32;;;;;;;9.20;5.15;;;13.90;49.30;;;;;;4925120;28;20043;-80
2022/03/01 12:08:59;;;;;;;7.47;4.70;;;14.20;49.00;;;;;;4942429;28;20073;-79
2022/03/01 12:11:42;;;;;;;6.78;3.97;;;14.30;48.30;;;;;;4907637;28;20083;-79
2022/03/01 12:14:09;;;;;;;7.63;4.45;;;14.40;47.30;;;;;;4929884;28;20051;-81
2022/03/01 12:16:35;;;;;;;6.88;4.07;;;14.30;47.60;;;;;;4927319;28;20198;-79
2022/03/01 12:19:08;;;;;;;5.70;4.47;;;14.30;47.90;;;;;;4927826;28;20126;-79
2022/03/01 12:21:34;;;;;;;7.30;3.97;;;14.40;47.70;;;;;;4930883;28;20055;-79
2022/03/01 12:23:59;;;;;;;7.82;4.35;;;14.40;48.00;;;;;;4942093;28;20075;-80
2022/03/01 12:26:26;;;;;;;7.47;4.30;;;14.50;48.50;;;;;;4925526;28;20054;-80
2022/03/01 12:28:52;;;;;;;6.25;4.25;;;14.70;47.60;;;;;;4926879;29;20040;-78
2022/03/01 12:31:20;;;;;;;5.35;3.75;;;14.70;47.40;;;;;;4929645;28;20051;-76
2022/03/01 12:33:50;;;;;;;6.72;4.80;;;14.90;47.40;;;;;;4933076;28;20039;-75
2022/03/01 12:36:35;;;;;;;6.57;4.45;;;15.00;47.20;;;;;;4941623;28;20031;-75
2022/03/01 12:39:14;;;;;;;6.30;4.70;;;15.10;45.30;;;;;;4942155;28;20562;-75